Time;durP1;ratioP1;P1;durP2;ratioP2;P2;SDS_P1;SDS_P2;PMS_P1;PMS_P2;Temp;Humidity;BMP_temperature;BMP_pressure;BME280_temperature;BME280_humidity;BME280_pressure;Samples;Min_cycle;Max_cycle;Signal;HPM_P1;HPM_P2
2023/07/16 00:01:01;;;;;;;7.10;3.50;;;24.40;61.20;;;;;;4850792;29;20057;-96
2023/07/16 00:03:28;;;;;;;7.53;3.72;;;24.40;61.30;;;;;;4850485;29;20051;-96
2023/07/16 00:05:55;;;;;;;7.50;3.70;;;24.30;61.50;;;;;;4850216;29;20097;-96
2023/07/16 00:08:23;;;;;;;9.48;4.03;;;24.30;61.50;;;;;;4850564;29;20056;-96
2023/07/16 00:10:50;;;;;;;9.35;4.03;;;24.30;61.70;;;;;;4850397;29;20484;-96
2023/07/16 00:13:17;;;;;;;7.43;3.80;;;24.20;61.60;;;;;;4850409;29;20060;-96
2023/07/16 00:15:44;;;;;;;7.55;3.40;;;24.30;61.60;;;;;;4850416;29;20049;-96
2023/07/16 00:18:11;;;;;;;7.90;3.47;;;24.30;61.70;;;;;;4849728;29;20053;-96
2023/07/16 00:20:38;;;;;;;7.75;4.03;;;24.30;61.70;;;;;;4850349;29;20556;-96
2023/07/16 00:23:05;;;;;;;9.15;3.50;;;24.20;62.20;;;;;;4850383;29;20080;-96
2023/07/16 00:25:32;;;;;;;8.85;4.20;;;24.20;62.00;;;;;;4850302;29;20065;-96
2023/07/16 00:27:59;;;;;;;7.63;4.10;;;24.20;62.00;;;;;;4849913;29;20096;-96
2023/07/16 00:30:26;;;;;;;9.00;3.60;;;24.20;61.80;;;;;;4850185;29;20411;-96
2023/07/16 00:32:53;;;;;;;8.10;4.07;;;24.20;62.00;;;;;;4850294;29;20061;-96
2023/07/16 00:35:20;;;;;;;7.25;4.22;;;24.20;62.00;;;;;;4850200;29;20056;-96
2023/07/16 00:37:48;;;;;;;8.00;3.80;;;24.20;62.00;;;;;;4849951;29;20056;-96
2023/07/16 00:40:15;;;;;;;7.68;3.63;;;24.20;62.10;;;;;;4849931;29;20049;-96
2023/07/16 00:42:42;;;;;;;7.10;3.87;;;24.10;62.30;;;;;;4849858;29;20416;-96
2023/07/16 00:45:14;;;;;;;8.32;3.90;;;24.10;62.30;;;;;;4850391;29;20076;-96
2023/07/16 00:47:43;;;;;;;8.18;4.00;;;24.10;62.50;;;;;;4850448;29;20053;-96
2023/07/16 00:50:12;;;;;;;6.75;3.75;;;24.10;62.30;;;;;;4849843;29;20097;-96
2023/07/16 00:52:39;;;;;;;10.45;3.75;;;24.10;62.30;;;;;;4849774;29;20073;-96
2023/07/16 00:55:07;;;;;;;7.93;3.83;;;24.10;62.60;;;;;;4850041;29;20048;-96
2023/07/16 00:57:35;;;;;;;7.43;3.38;;;24.10;62.50;;;;;;4849825;29;20397;-96
2023/07/16 01:00:05;;;;;;;7.25;3.80;;;24.00;62.70;;;;;;4850026;29;20049;-96
2023/07/16 01:02:32;;;;;;;8.82;3.95;;;24.00;62.40;;;;;;4849849;29;20049;-96
2023/07/16 01:05:00;;;;;;;7.63;3.75;;;24.00;62.50;;;;;;4849916;29;20049;-96
2023/07/16 01:07:30;;;;;;;7.20;3.90;;;24.10;62.40;;;;;;4849666;29;20053;-96
2023/07/16 01:09:58;;;;;;;8.30;4.13;;;24.00;62.40;;;;;;4849449;29;20053;-96
2023/07/16 01:12:27;;;;;;;7.65;3.95;;;24.00;62.50;;;;;;4849635;29;20544;-96
2023/07/16 01:14:56;;;;;;;7.60;4.00;;;24.00;62.50;;;;;;4849602;29;20049;-96
2023/07/16 01:17:23;;;;;;;9.38;4.22;;;24.00;62.60;;;;;;4849514;29;20045;-96
2023/07/16 01:19:50;;;;;;;7.13;3.80;;;23.90;62.70;;;;;;4849503;29;20056;-96
2023/07/16 01:22:29;;;;;;;7.88;4.00;;;23.90;62.70;;;;;;4849485;29;20530;-96
2023/07/16 01:25:09;;;;;;;9.48;4.03;;;23.90;62.70;;;;;;4849480;29;20073;-96
2023/07/16 01:27:57;;;;;;;9.05;4.65;;;23.90;62.80;;;;;;4849617;29;20045;-96
2023/07/16 01:30:28;;;;;;;7.78;4.28;;;23.90;62.90;;;;;;4853320;29;20078;-96
2023/07/16 01:32:56;;;;;;;8.47;4.50;;;23.80;62.90;;;;;;4853303;29;20049;-96
2023/07/16 01:35:25;;;;;;;9.15;4.55;;;23.80;63.10;;;;;;4853654;29;20113;-96
2023/07/16 01:37:53;;;;;;;8.73;4.45;;;23.70;63.30;;;;;;4853131;29;20053;-96
2023/07/16 01:40:20;;;;;;;9.07;4.53;;;23.70;63.20;;;;;;4852987;29;20416;-96
2023/07/16 01:42:47;;;;;;;10.45;4.47;;;23.60;63.30;;;;;;4852791;29;20057;-96
2023/07/16 01:45:14;;;;;;;8.37;4.63;;;23.60;63.50;;;;;;4852622;29;20045;-96
2023/07/16 01:48:05;;;;;;;7.68;4.60;;;23.60;63.60;;;;;;4852338;29;20127;-96
2023/07/16 01:50:32;;;;;;;9.80;5.18;;;23.60;63.60;;;;;;4852598;29;20068;-96
2023/07/16 01:52:59;;;;;;;9.68;4.78;;;23.60;63.70;;;;;;4852412;29;20083;-96
2023/07/16 01:55:26;;;;;;;7.90;4.78;;;23.60;63.80;;;;;;4852508;29;20549;-96
2023/07/16 01:57:55;;;;;;;10.90;5.30;;;23.60;63.90;;;;;;4852664;29;20049;-96
2023/07/16 02:00:22;;;;;;;9.10;4.30;;;23.50;64.10;;;;;;4852706;29;20507;-96
2023/07/16 02:02:52;;;;;;;9.85;5.40;;;23.50;64.00;;;;;;4867626;29;20064;-96
2023/07/16 02:05:20;;;;;;;7.57;4.90;;;23.50;63.80;;;;;;4852533;29;20084;-96
2023/07/16 02:07:47;;;;;;;9.30;5.43;;;23.50;64.10;;;;;;4852171;29;20045;-96
2023/07/16 02:10:14;;;;;;;10.47;5.37;;;23.50;64.00;;;;;;4852207;29;20045;-96
2023/07/16 02:12:41;;;;;;;8.60;5.50;;;23.60;63.90;;;;;;4852085;29;20048;-96
2023/07/16 02:15:08;;;;;;;8.00;5.03;;;23.50;63.90;;;;;;4851878;29;20049;-96
2023/07/16 02:17:36;;;;;;;8.65;5.32;;;23.60;63.90;;;;;;4851714;29;20086;-96
2023/07/16 02:20:07;;;;;;;8.85;5.35;;;23.60;64.00;;;;;;4851931;29;20056;-96
2023/07/16 02:22:35;;;;;;;9.50;5.50;;;23.60;63.90;;;;;;4851823;29;20412;-96
2023/07/16 02:25:03;;;;;;;8.82;5.20;;;23.50;64.10;;;;;;4851739;29;20093;-96
2023/07/16 02:27:31;;;;;;;10.77;5.60;;;23.50;63.90;;;;;;4851661;29;20049;-96
2023/07/16 02:29:58;;;;;;;8.52;5.65;;;23.50;63.80;;;;;;4851662;29;20049;-96
2023/07/16 02:32:25;;;;;;;8.52;5.10;;;23.60;63.60;;;;;;4852283;29;20055;-96
2023/07/16 02:34:52;;;;;;;9.00;5.40;;;23.50;63.60;;;;;;4851796;29;20053;-96
2023/07/16 02:37:19;;;;;;;10.32;5.25;;;23.60;63.90;;;;;;4851530;29;20091;-96
2023/07/16 02:39:47;;;;;;;8.40;5.22;;;23.50;63.70;;;;;;4850750;29;20523;-96
2023/07/16 02:42:14;;;;;;;8.73;5.15;;;23.60;63.80;;;;;;4851063;29;20105;-96
2023/07/16 02:44:44;;;;;;;10.85;5.38;;;23.60;63.70;;;;;;4851647;29;20053;-95
2023/07/16 02:47:12;;;;;;;8.90;5.20;;;23.60;63.50;;;;;;4851586;29;20151;-96
2023/07/16 02:49:39;;;;;;;7.88;5.20;;;23.60;63.70;;;;;;4851588;29;20052;-95
2023/07/16 02:52:07;;;;;;;9.10;5.57;;;23.60;63.60;;;;;;4851143;29;20041;-96
2023/07/16 02:54:36;;;;;;;9.63;4.90;;;23.60;63.60;;;;;;4851231;29;20056;-96
2023/07/16 02:57:05;;;;;;;10.02;5.15;;;23.60;63.70;;;;;;4851194;29;20135;-96
2023/07/16 02:59:32;;;;;;;8.33;5.23;;;23.60;63.50;;;;;;4851146;29;20514;-96
2023/07/16 03:02:00;;;;;;;7.82;4.90;;;23.60;63.30;;;;;;4851542;29;20064;-95
2023/07/16 03:04:27;;;;;;;9.10;4.90;;;23.60;63.20;;;;;;4851195;29;20091;-96
2023/07/16 03:06:54;;;;;;;10.55;5.38;;;23.60;63.40;;;;;;4850880;29;20064;-96
2023/07/16 03:09:22;;;;;;;10.00;4.60;;;23.50;63.40;;;;;;4851172;29;20134;-96
2023/07/16 03:11:49;;;;;;;8.63;4.60;;;23.50;63.50;;;;;;4851148;29;20053;-96
2023/07/16 03:14:17;;;;;;;8.07;4.97;;;23.50;63.50;;;;;;4851399;29;20049;-96
2023/07/16 03:16:45;;;;;;;7.63;4.72;;;23.50;63.50;;;;;;4851193;29;20053;-96
2023/07/16 03:19:12;;;;;;;8.88;5.05;;;23.50;63.60;;;;;;4850831;29;20087;-96
2023/07/16 03:21:39;;;;;;;8.07;5.15;;;23.50;63.70;;;;;;4850867;29;20053;-96
2023/07/16 03:24:06;;;;;;;8.47;5.40;;;23.40;63.90;;;;;;4850987;29;20083;-95
2023/07/16 03:26:34;;;;;;;8.10;4.88;;;23.40;63.80;;;;;;4851186;29;20053;-96
2023/07/16 03:29:01;;;;;;;8.85;4.95;;;23.40;63.90;;;;;;4850656;29;20052;-96
2023/07/16 03:31:29;;;;;;;7.72;4.93;;;23.40;63.90;;;;;;4850906;29;20053;-96
2023/07/16 03:33:56;;;;;;;10.75;5.43;;;23.40;63.80;;;;;;4850894;29;20525;-96
2023/07/16 03:36:27;;;;;;;8.93;5.43;;;23.30;64.20;;;;;;4851200;29;20053;-96
2023/07/16 03:38:54;;;;;;;13.85;5.95;;;23.30;64.10;;;;;;4850528;29;20148;-96
2023/07/16 03:41:21;;;;;;;12.27;5.30;;;23.30;63.90;;;;;;4850617;29;20061;-96
2023/07/16 03:43:49;;;;;;;9.63;5.00;;;23.30;63.90;;;;;;4850656;29;20503;-96
2023/07/16 03:46:19;;;;;;;12.57;5.10;;;23.30;64.10;;;;;;4850913;29;20103;-96
2023/07/16 03:48:47;;;;;;;8.97;4.93;;;23.30;64.10;;;;;;4850389;29;20081;-96
2023/07/16 03:51:14;;;;;;;9.50;5.38;;;23.30;64.10;;;;;;4850125;29;20053;-96
2023/07/16 03:53:41;;;;;;;9.02;5.15;;;23.30;63.80;;;;;;4850326;29;20045;-96
2023/07/16 03:56:08;;;;;;;10.50;4.70;;;23.40;64.20;;;;;;4850342;29;20041;-96
2023/07/16 03:58:35;;;;;;;8.85;5.00;;;23.40;64.10;;;;;;4849889;29;20049;-96
2023/07/16 04:01:13;;;;;;;9.13;4.90;;;23.30;64.00;;;;;;4865318;29;20060;-96
2023/07/16 04:03:44;;;;;;;9.80;4.70;;;23.40;63.80;;;;;;4849689;29;20135;-96
2023/07/16 04:06:14;;;;;;;8.57;4.93;;;23.40;63.80;;;;;;4850390;29;20061;-96
2023/07/16 04:08:41;;;;;;;10.48;4.80;;;23.50;63.80;;;;;;4849775;29;20045;-96
2023/07/16 04:11:08;;;;;;;8.57;5.00;;;23.50;63.40;;;;;;4850166;29;20519;-96
2023/07/16 04:13:38;;;;;;;7.83;5.10;;;23.60;63.50;;;;;;4849820;29;20500;-96
2023/07/16 04:16:05;;;;;;;9.32;5.18;;;23.60;63.70;;;;;;4849719;29;20543;-96
2023/07/16 04:18:32;;;;;;;10.00;4.88;;;23.60;63.70;;;;;;4849901;29;20060;-96
2023/07/16 04:20:59;;;;;;;8.23;4.93;;;23.60;63.00;;;;;;4849816;29;20053;-96
2023/07/16 04:23:26;;;;;;;9.50;4.45;;;23.80;63.10;;;;;;4850022;29;20052;-96
2023/07/16 04:25:55;;;;;;;7.40;4.53;;;23.90;63.00;;;;;;4849665;29;20080;-96
2023/07/16 04:28:22;;;;;;;7.90;4.50;;;23.90;62.80;;;;;;4849449;29;20500;-96
2023/07/16 04:30:50;;;;;;;8.50;4.70;;;24.00;62.50;;;;;;4849719;29;20052;-96
2023/07/16 04:33:18;;;;;;;8.93;4.70;;;24.10;62.50;;;;;;4849838;29;20112;-96
2023/07/16 04:35:46;;;;;;;8.70;4.93;;;24.10;62.10;;;;;;4849692;29;20045;-96
2023/07/16 04:38:13;;;;;;;9.33;4.93;;;24.20;62.20;;;;;;4849865;29;20543;-96
2023/07/16 04:40:42;;;;;;;8.00;4.50;;;24.20;61.90;;;;;;4849353;29;20096;-96
2023/07/16 04:43:09;;;;;;;8.88;4.45;;;24.30;62.00;;;;;;4849707;29;20048;-96
2023/07/16 04:45:36;;;;;;;8.65;4.38;;;24.50;61.90;;;;;;4849740;29;20105;-96
2023/07/16 04:48:04;;;;;;;7.72;4.30;;;24.60;61.20;;;;;;4849607;29;20065;-96
2023/07/16 04:50:31;;;;;;;7.40;4.40;;;24.60;61.10;;;;;;4849589;29;20136;-96
2023/07/16 04:52:58;;;;;;;9.00;4.72;;;24.70;61.00;;;;;;4849282;29;20504;-96
2023/07/16 04:55:25;;;;;;;8.10;4.43;;;24.90;60.80;;;;;;4849308;29;20064;-96
2023/07/16 04:57:53;;;;;;;8.27;4.80;;;25.00;60.30;;;;;;4849347;29;20049;-96
2023/07/16 05:00:20;;;;;;;8.95;4.72;;;25.10;60.30;;;;;;4849423;29;20049;-96
2023/07/16 05:02:48;;;;;;;8.67;5.10;;;25.10;60.00;;;;;;4849149;29;20052;-96
2023/07/16 05:05:15;;;;;;;7.63;4.60;;;25.30;59.90;;;;;;4849097;29;20087;-96
2023/07/16 05:07:42;;;;;;;9.43;4.40;;;25.50;59.60;;;;;;4849381;29;20052;-96
2023/07/16 05:10:09;;;;;;;8.93;5.18;;;25.50;59.60;;;;;;4849407;29;20057;-96
2023/07/16 05:12:38;;;;;;;7.72;4.47;;;25.60;59.60;;;;;;4849670;29;20049;-96
2023/07/16 05:15:05;;;;;;;11.17;5.10;;;25.80;59.60;;;;;;4849364;29;20041;-96
2023/07/16 05:17:33;;;;;;;11.00;4.60;;;26.00;59.00;;;;;;4849027;29;20057;-96
2023/07/16 05:20:00;;;;;;;7.72;4.30;;;26.10;58.90;;;;;;4849287;29;20072;-96
2023/07/16 05:27:11;;;;;;;7.80;4.68;;;26.20;58.20;;;;;;4879586;29;20472;-96
2023/07/16 06:48:55;;;;;;;8.48;4.10;;;28.30;55.60;;;;;;5967766;23;20130;31
2023/07/16 06:51:22;;;;;;;10.70;4.70;;;28.60;54.10;;;;;;4844306;29;20050;-96
2023/07/16 06:53:52;;;;;;;7.00;4.05;;;28.70;55.10;;;;;;4859096;29;20075;-96
2023/07/16 07:00:10;;;;;;;10.98;4.45;;;29.00;52.90;;;;;;5069436;23;20067;-96
2023/07/16 07:02:40;;;;;;;15.82;5.03;;;29.10;54.50;;;;;;4874175;29;20045;-96
2023/07/16 07:05:15;;;;;;;12.85;4.70;;;29.30;53.50;;;;;;4875081;29;20147;-96
2023/07/16 07:07:43;;;;;;;9.20;4.60;;;29.40;52.40;;;;;;4866271;29;20052;-93
2023/07/16 07:10:11;;;;;;;11.27;3.90;;;29.40;52.20;;;;;;4850920;29;20072;-93
2023/07/16 07:12:38;;;;;;;8.23;3.80;;;29.60;51.30;;;;;;4850716;29;20049;-93
2023/07/16 07:15:08;;;;;;;7.47;3.85;;;29.70;50.70;;;;;;4852352;29;20055;-96
2023/07/16 07:44:37;;;;;;;7.13;3.97;;;30.90;48.00;;;;;;5125153;23;19948;-96
2023/07/16 07:47:09;;;;;;;7.45;3.50;;;30.90;48.30;;;;;;4879009;29;20113;-96
2023/07/16 07:50:08;;;;;;;9.27;3.67;;;30.90;46.80;;;;;;4893856;29;20207;-96
2023/07/16 07:52:47;;;;;;;6.32;3.38;;;31.10;46.90;;;;;;4881007;29;20045;-96
2023/07/16 07:55:22;;;;;;;8.17;3.83;;;31.10;47.00;;;;;;4881719;29;20049;-96
2023/07/16 07:57:58;;;;;;;5.60;3.30;;;31.10;48.30;;;;;;4895569;29;20049;-96
2023/07/16 08:00:43;;;;;;;7.95;3.85;;;31.20;46.40;;;;;;4882109;29;20076;-96
2023/07/16 08:03:50;;;;;;;8.43;4.00;;;31.20;45.70;;;;;;4882591;29;20052;-96
2023/07/16 08:07:52;;;;;;;7.45;3.70;;;31.40;46.50;;;;;;4897206;29;20056;-96
2023/07/16 08:10:25;;;;;;;7.13;3.47;;;31.50;45.00;;;;;;4863206;29;20045;-96
2023/07/16 08:17:26;;;;;;;6.95;3.90;;;31.50;44.90;;;;;;4887581;29;20133;-93
2023/07/16 08:19:53;;;;;;;9.95;4.20;;;30.90;46.20;;;;;;4849297;29;20432;-94
2023/07/16 08:22:23;;;;;;;8.80;4.38;;;30.80;47.50;;;;;;4849198;29;20139;-94
2023/07/16 08:24:51;;;;;;;8.57;3.93;;;31.00;47.70;;;;;;4865280;29;20060;-93
2023/07/16 08:27:19;;;;;;;7.93;4.22;;;31.10;46.80;;;;;;4848912;29;20496;-94
2023/07/16 08:29:46;;;;;;;6.97;4.07;;;31.20;44.60;;;;;;4849232;29;20570;-93
2023/07/16 08:32:13;;;;;;;7.43;4.28;;;31.20;44.30;;;;;;4864168;29;20083;-93
2023/07/16 08:34:41;;;;;;;8.23;4.20;;;31.40;45.10;;;;;;4865448;29;20105;-93
2023/07/16 08:37:08;;;;;;;8.33;4.70;;;31.60;44.50;;;;;;4865050;29;20045;-93
2023/07/16 08:39:35;;;;;;;8.65;4.50;;;31.60;45.10;;;;;;4864415;29;20074;-94
2023/07/16 08:42:02;;;;;;;8.43;4.25;;;31.70;44.50;;;;;;4865254;29;20060;-93
2023/07/16 08:44:30;;;;;;;10.02;4.88;;;31.90;45.10;;;;;;4864832;29;20046;-94
2023/07/16 08:46:58;;;;;;;10.15;5.15;;;31.90;45.20;;;;;;4865086;29;20558;-93
2023/07/16 08:49:29;;;;;;;10.93;5.03;;;32.00;47.40;;;;;;4864719;29;20045;-94
2023/07/16 08:51:57;;;;;;;8.35;5.50;;;32.10;45.70;;;;;;4864510;29;20393;-94
2023/07/16 08:54:25;;;;;;;10.32;4.95;;;31.90;46.20;;;;;;4864943;29;20121;-93
2023/07/16 08:56:53;;;;;;;8.88;5.18;;;31.50;46.80;;;;;;4865274;29;20087;-94
2023/07/16 08:59:21;;;;;;;9.85;5.25;;;31.10;47.30;;;;;;4864767;29;20067;-93
2023/07/16 09:01:51;;;;;;;7.77;5.50;;;30.90;49.60;;;;;;4864651;29;20555;-93
2023/07/16 09:04:19;;;;;;;12.07;5.25;;;30.60;50.40;;;;;;4864857;29;20586;-94
2023/07/16 09:06:46;;;;;;;9.88;5.75;;;30.70;49.90;;;;;;4879896;29;20137;-94
2023/07/16 09:09:21;;;;;;;9.50;6.95;;;30.90;49.20;;;;;;4865089;29;20056;-93
2023/07/16 09:11:49;;;;;;;10.88;6.78;;;31.20;49.60;;;;;;4864479;29;20084;-93
2023/07/16 09:14:20;;;;;;;12.60;7.07;;;31.30;48.60;;;;;;4864645;29;20453;-93
2023/07/16 09:16:52;;;;;;;10.27;6.88;;;31.50;49.80;;;;;;4864656;29;20053;-95
2023/07/16 09:19:21;;;;;;;10.07;7.18;;;31.70;48.10;;;;;;4865135;29;20105;-93
2023/07/16 09:21:49;;;;;;;9.73;7.18;;;31.90;48.70;;;;;;4864609;29;20061;-94
2023/07/16 09:24:17;;;;;;;11.70;6.93;;;32.00;49.10;;;;;;4865082;29;20492;-93
2023/07/16 09:26:53;;;;;;;11.70;7.43;;;31.90;47.70;;;;;;4864945;29;20064;-93
2023/07/16 09:29:20;;;;;;;14.10;8.45;;;31.80;49.20;;;;;;4864929;29;20534;-94
2023/07/16 09:32:06;;;;;;;12.98;7.32;;;31.70;49.50;;;;;;4864258;29;20045;-93
2023/07/16 09:34:33;;;;;;;14.73;7.70;;;31.60;48.40;;;;;;4864691;29;20045;-93
2023/07/16 09:37:03;;;;;;;10.10;7.50;;;31.70;48.50;;;;;;4864438;29;20045;-93
2023/07/16 09:39:32;;;;;;;11.30;7.90;;;32.00;49.20;;;;;;4864289;29;20053;-93
2023/07/16 09:41:59;;;;;;;11.63;7.57;;;32.20;48.40;;;;;;4864037;29;20632;-94
2023/07/16 09:44:26;;;;;;;11.30;7.45;;;32.60;46.90;;;;;;4864284;29;20053;-94
2023/07/16 09:46:54;;;;;;;10.23;7.55;;;32.60;46.60;;;;;;4873821;29;20425;-93
2023/07/16 09:49:21;;;;;;;14.25;10.70;;;32.60;46.90;;;;;;4861696;29;20519;-93
2023/07/16 09:51:52;;;;;;;13.87;8.67;;;32.60;48.70;;;;;;4864707;29;20512;-94
2023/07/16 09:54:20;;;;;;;12.30;8.23;;;32.50;47.40;;;;;;4864545;29;20050;-93
2023/07/16 09:56:50;;;;;;;12.10;8.95;;;32.40;47.60;;;;;;4864865;29;20141;-93
2023/07/16 09:59:23;;;;;;;12.75;8.40;;;32.10;48.00;;;;;;4864430;29;20118;-94
2023/07/16 10:01:52;;;;;;;9.63;7.90;;;31.90;49.20;;;;;;4864643;29;20056;-93
2023/07/16 10:04:20;;;;;;;13.20;9.30;;;31.60;50.50;;;;;;4865229;29;20081;-93
2023/07/16 10:06:55;;;;;;;17.27;9.50;;;31.40;51.90;;;;;;4864485;29;20053;-93
2023/07/16 10:09:42;;;;;;;13.05;8.73;;;31.20;53.20;;;;;;4864190;29;20500;-93
2023/07/16 10:12:18;;;;;;;12.85;9.60;;;30.80;53.50;;;;;;4879687;29;20060;-94
2023/07/16 10:14:53;;;;;;;12.73;9.85;;;30.60;53.70;;;;;;4864008;29;20050;-93
2023/07/16 10:17:22;;;;;;;12.63;9.90;;;30.60;54.40;;;;;;4880030;29;20508;-93
2023/07/16 10:20:12;;;;;;;12.48;9.98;;;30.60;54.50;;;;;;4848926;29;20148;-93
2023/07/16 10:22:42;;;;;;;13.15;9.90;;;30.60;54.90;;;;;;4864124;29;20420;-93
2023/07/16 10:25:23;;;;;;;14.95;10.48;;;30.60;54.90;;;;;;4864063;29;20557;-93
2023/07/16 10:27:51;;;;;;;15.30;9.40;;;31.10;55.00;;;;;;4863918;29;20106;-93
2023/07/16 10:30:19;;;;;;;13.03;9.93;;;31.40;53.70;;;;;;4864303;29;20045;-93
2023/07/16 10:32:46;;;;;;;13.50;9.57;;;31.60;53.10;;;;;;4863666;29;20045;-93
2023/07/16 10:35:14;;;;;;;12.85;10.77;;;31.40;51.50;;;;;;4864345;29;20053;-93
2023/07/16 10:37:42;;;;;;;16.30;9.60;;;31.40;52.60;;;;;;4879183;29;20051;-93
2023/07/16 10:40:13;;;;;;;11.75;9.95;;;31.60;52.20;;;;;;4864043;29;20109;-92
2023/07/16 10:42:43;;;;;;;13.37;9.67;;;31.70;50.80;;;;;;4864417;29;20397;-93
2023/07/16 10:45:10;;;;;;;13.30;10.02;;;31.80;50.70;;;;;;4869368;29;20424;-93
2023/07/16 10:47:40;;;;;;;12.60;10.27;;;32.00;49.80;;;;;;4885290;29;20052;-93
2023/07/16 10:50:09;;;;;;;11.50;9.80;;;32.10;49.90;;;;;;4870178;29;20049;-94
2023/07/16 10:52:40;;;;;;;13.60;10.55;;;32.30;49.70;;;;;;4870031;29;20083;-93
2023/07/16 10:55:07;;;;;;;12.00;9.87;;;32.60;50.10;;;;;;4885257;29;20051;-93
2023/07/16 10:57:35;;;;;;;14.65;10.23;;;32.70;49.00;;;;;;4869840;29;20570;-93
2023/07/16 11:00:03;;;;;;;12.82;10.32;;;32.60;49.00;;;;;;4869847;29;20135;-93
2023/07/16 11:02:31;;;;;;;13.45;11.15;;;32.20;49.70;;;;;;4869568;29;20082;-93
2023/07/16 11:05:00;;;;;;;12.40;10.63;;;31.90;52.30;;;;;;4869958;29;20059;-92
2023/07/16 11:07:28;;;;;;;12.23;10.90;;;31.70;51.10;;;;;;4885029;29;20057;-93
2023/07/16 11:09:55;;;;;;;13.07;10.65;;;31.60;51.30;;;;;;4869655;29;20040;-93
2023/07/16 11:12:24;;;;;;;13.65;10.90;;;31.60;51.10;;;;;;4869449;29;20049;-93
2023/07/16 11:14:55;;;;;;;13.00;11.70;;;31.60;50.80;;;;;;4869434;29;20044;-93
2023/07/16 11:17:27;;;;;;;14.10;11.65;;;31.60;53.70;;;;;;4884666;29;20096;-93
2023/07/16 11:19:55;;;;;;;15.13;12.43;;;31.60;52.30;;;;;;4884865;29;20053;-93
2023/07/16 11:22:27;;;;;;;14.05;11.38;;;31.60;53.10;;;;;;4869580;29;20052;-93
2023/07/16 11:24:54;;;;;;;16.80;12.00;;;31.50;52.10;;;;;;4884623;29;20048;-93
2023/07/16 11:27:26;;;;;;;14.75;12.18;;;31.30;53.50;;;;;;4869263;29;20507;-93
2023/07/16 11:29:58;;;;;;;19.58;15.18;;;31.20;54.20;;;;;;4869196;29;20037;-93
2023/07/16 11:32:36;;;;;;;20.00;14.73;;;31.00;59.70;;;;;;4884779;29;20143;-93
2023/07/16 11:35:06;;;;;;;19.30;15.43;;;30.80;62.10;;;;;;4884684;29;20564;-93
2023/07/16 11:37:35;;;;;;;17.00;15.30;;;30.90;63.60;;;;;;4868962;29;20400;-93
2023/07/16 11:40:10;;;;;;;16.75;14.95;;;31.30;64.70;;;;;;4869096;29;20534;-92
2023/07/16 11:42:41;;;;;;;14.82;12.77;;;31.60;64.20;;;;;;4869214;29;20048;-92
2023/07/16 11:45:20;;;;;;;14.47;12.97;;;32.00;57.00;;;;;;4884057;29;20079;-92
2023/07/16 11:47:47;;;;;;;17.08;12.55;;;32.20;55.30;;;;;;4884400;29;20053;-93
2023/07/16 11:50:15;;;;;;;14.27;11.93;;;32.30;53.10;;;;;;4868766;29;20491;-93
2023/07/16 11:52:42;;;;;;;17.15;12.32;;;32.50;52.30;;;;;;4884254;29;20048;-93
2023/07/16 11:55:09;;;;;;;16.70;12.68;;;32.60;53.20;;;;;;4885038;29;20512;-93
2023/07/16 11:57:36;;;;;;;14.20;12.70;;;32.60;54.20;;;;;;4884027;29;20049;-93
2023/07/16 12:00:04;;;;;;;13.90;11.43;;;32.60;52.40;;;;;;4868747;29;20267;-93
2023/07/16 12:02:32;;;;;;;13.80;11.93;;;32.70;51.20;;;;;;4868567;29;20044;-93
2023/07/16 12:05:00;;;;;;;14.55;11.98;;;32.80;50.70;;;;;;4884162;29;20095;-93
2023/07/16 12:07:37;;;;;;;14.27;11.80;;;32.80;50.50;;;;;;4883977;29;20059;-93
2023/07/16 12:10:06;;;;;;;14.20;12.13;;;32.80;50.90;;;;;;4883993;29;20048;-93
2023/07/16 12:12:37;;;;;;;13.90;11.95;;;32.90;51.90;;;;;;4868185;29;20144;-93
2023/07/16 12:15:07;;;;;;;14.30;11.88;;;33.00;52.20;;;;;;4883827;29;20044;-93
2023/07/16 12:17:34;;;;;;;15.38;11.85;;;33.10;50.50;;;;;;4868648;29;20480;-93
2023/07/16 12:20:06;;;;;;;14.00;11.57;;;33.10;48.70;;;;;;4868250;29;20048;-93
2023/07/16 12:22:33;;;;;;;14.30;11.30;;;33.00;48.20;;;;;;4883931;29;20048;-94
2023/07/16 12:25:01;;;;;;;13.68;11.38;;;32.90;48.60;;;;;;4868353;29;20057;-93
2023/07/16 12:27:29;;;;;;;14.93;12.20;;;33.10;50.20;;;;;;4883920;29;20060;-94
2023/07/16 12:29:57;;;;;;;14.75;11.98;;;33.00;48.90;;;;;;4868113;29;20135;-94
2023/07/16 12:32:24;;;;;;;13.77;12.27;;;32.90;51.10;;;;;;4883470;29;20108;-93
2023/07/16 12:34:51;;;;;;;14.30;12.33;;;32.70;50.90;;;;;;4868687;29;20427;-93
2023/07/16 12:37:18;;;;;;;14.40;12.95;;;32.40;51.50;;;;;;4868415;29;20056;-93
2023/07/16 12:39:45;;;;;;;14.25;12.25;;;32.40;53.00;;;;;;4868017;29;20056;-93
2023/07/16 12:42:13;;;;;;;14.75;12.75;;;32.40;52.10;;;;;;4883594;29;20108;-93
2023/07/16 12:44:40;;;;;;;15.70;12.77;;;32.50;53.10;;;;;;4883484;29;20053;-93
2023/07/16 12:47:08;;;;;;;15.10;12.50;;;32.70;50.70;;;;;;4867984;29;20060;-93
2023/07/16 12:49:36;;;;;;;13.70;11.75;;;32.90;51.50;;;;;;4867849;29;20060;-93
2023/07/16 12:52:03;;;;;;;14.65;12.80;;;32.90;48.70;;;;;;4883286;29;20059;-93
2023/07/16 12:54:33;;;;;;;14.80;13.25;;;33.00;51.40;;;;;;4883238;29;20492;-93
2023/07/16 12:57:00;;;;;;;15.93;12.80;;;32.90;51.30;;;;;;4867648;29;20119;-93
2023/07/16 12:59:28;;;;;;;14.43;12.90;;;32.90;51.60;;;;;;4868171;29;20045;-93
2023/07/16 13:01:55;;;;;;;13.98;12.48;;;33.00;49.50;;;;;;4882949;29;20048;-93
2023/07/16 13:04:23;;;;;;;15.13;12.85;;;33.10;50.80;;;;;;4867585;29;20131;-92
2023/07/16 13:06:50;;;;;;;14.35;12.80;;;33.10;50.40;;;;;;4883128;29;20052;-94
2023/07/16 13:09:17;;;;;;;14.25;12.13;;;33.30;50.80;;;;;;4867559;29;20076;-93
2023/07/16 13:11:44;;;;;;;16.20;13.80;;;33.50;48.90;;;;;;4883354;29;20041;-94
2023/07/16 13:14:12;;;;;;;15.75;12.40;;;33.60;50.50;;;;;;4867769;29;20049;-93
2023/07/16 13:16:40;;;;;;;15.50;13.02;;;33.60;48.70;;;;;;4883495;29;20040;-93
2023/07/16 13:19:07;;;;;;;16.05;12.98;;;33.70;50.40;;;;;;4867368;29;20064;-94
2023/07/16 13:21:37;;;;;;;13.48;11.65;;;33.80;49.60;;;;;;4883018;29;20522;-93
2023/07/16 13:24:05;;;;;;;14.10;12.63;;;33.90;47.60;;;;;;4883048;29;20522;-93
2023/07/16 13:26:32;;;;;;;13.27;11.60;;;33.70;46.80;;;;;;4871645;29;20148;-93
2023/07/16 13:28:59;;;;;;;13.10;11.75;;;33.70;48.70;;;;;;4886811;29;20062;-94
2023/07/16 13:31:26;;;;;;;13.20;11.70;;;33.70;47.30;;;;;;4871675;29;20049;-93
2023/07/16 13:33:54;;;;;;;14.30;11.88;;;33.80;48.00;;;;;;4871533;29;20056;-92
2023/07/16 13:36:21;;;;;;;14.33;11.27;;;33.80;48.00;;;;;;4886496;29;20135;-93
2023/07/16 13:38:48;;;;;;;13.20;11.35;;;33.80;48.10;;;;;;4871080;29;20139;-93
2023/07/16 13:41:15;;;;;;;13.77;11.85;;;33.80;46.60;;;;;;4871284;29;20079;-93
2023/07/16 13:43:43;;;;;;;14.40;10.20;;;33.80;47.00;;;;;;4886527;29;20044;-94
2023/07/16 13:46:10;;;;;;;12.65;10.88;;;33.80;45.70;;;;;;4871085;29;20052;-93
2023/07/16 13:48:40;;;;;;;15.47;11.33;;;33.90;46.00;;;;;;4887272;29;20064;-95
2023/07/16 13:51:24;;;;;;;14.70;11.27;;;33.90;46.00;;;;;;4889817;29;20049;-93
2023/07/16 13:53:51;;;;;;;13.52;11.60;;;33.90;45.10;;;;;;4871106;29;20040;-94
2023/07/16 13:56:18;;;;;;;14.57;11.55;;;34.00;46.50;;;;;;4888082;29;20507;-94
2023/07/16 13:58:50;;;;;;;15.45;12.02;;;34.00;47.40;;;;;;4875785;29;20060;-91
2023/07/16 14:01:18;;;;;;;14.17;11.37;;;34.10;47.10;;;;;;4887056;29;20048;-91
2023/07/16 14:03:45;;;;;;;13.23;11.10;;;34.10;46.00;;;;;;4872024;29;20051;-92
2023/07/16 14:06:13;;;;;;;12.88;10.70;;;34.10;46.30;;;;;;4870981;29;20416;-92
2023/07/16 14:08:41;;;;;;;11.80;10.60;;;34.20;46.30;;;;;;4870510;29;20089;-91
2023/07/16 14:11:08;;;;;;;13.52;12.07;;;34.20;45.10;;;;;;4885946;29;20073;-92
2023/07/16 14:13:36;;;;;;;13.67;10.53;;;34.50;45.80;;;;;;4870546;29;20092;-92
2023/07/16 14:16:08;;;;;;;13.40;10.75;;;34.50;44.30;;;;;;4885935;29;20040;-91
2023/07/16 14:18:36;;;;;;;13.27;11.00;;;34.50;43.20;;;;;;4886129;29;20056;-91
2023/07/16 14:21:04;;;;;;;14.00;11.18;;;34.40;43.40;;;;;;4870761;29;20415;-92
2023/07/16 14:23:31;;;;;;;13.07;11.00;;;34.40;43.40;;;;;;4886235;29;20052;-91
2023/07/16 14:25:58;;;;;;;13.83;10.97;;;34.60;44.30;;;;;;4870429;29;20075;-92
2023/07/16 14:28:25;;;;;;;13.30;11.30;;;34.60;44.80;;;;;;4886288;29;20056;-92
2023/07/16 14:30:52;;;;;;;13.38;11.45;;;34.70;45.50;;;;;;4885778;29;20044;-92
2023/07/16 14:33:21;;;;;;;13.88;11.95;;;34.40;43.60;;;;;;4870348;29;20496;-92
2023/07/16 14:35:48;;;;;;;12.60;11.23;;;34.20;44.80;;;;;;4869516;29;20180;-91
2023/07/16 14:38:15;;;;;;;14.00;11.47;;;34.10;45.70;;;;;;4885515;29;20041;-91
2023/07/16 14:40:42;;;;;;;13.63;11.23;;;34.00;46.10;;;;;;4885587;29;20149;-92
2023/07/16 14:43:09;;;;;;;16.65;11.70;;;34.10;45.10;;;;;;4870072;29;20053;-92
2023/07/16 14:45:37;;;;;;;16.40;12.45;;;34.20;44.40;;;;;;4869685;29;20116;-92
2023/07/16 14:48:05;;;;;;;14.15;11.68;;;34.30;44.70;;;;;;4885331;29;20147;-92